Time;durP1;ratioP1;P1;durP2;ratioP2;P2;SDS_P1;SDS_P2;PMS_P1;PMS_P2;Temp;Humidity;BMP_temperature;BMP_pressure;BME280_temperature;BME280_humidity;BME280_pressure;Samples;Min_cycle;Max_cycle;Signal;HPM_P1;HPM_P2
2022/04/26 03:37:45;;;;;;;7.07;3.25;;;;;;;7.18;100.00;94687.09;4833528;29;20053;-77
2022/04/26 03:40:12;;;;;;;5.32;3.10;;;;;;;7.17;100.00;94691.50;4855687;29;20060;-77
2022/04/26 03:42:40;;;;;;;7.38;2.95;;;;;;;7.16;100.00;94691.72;4839230;29;20067;-77
2022/04/26 03:45:07;;;;;;;6.60;3.10;;;;;;;7.01;100.00;94672.09;4847119;29;20041;-77
2022/04/26 03:47:34;;;;;;;4.95;2.40;;;;;;;7.10;100.00;94695.16;4856346;29;20176;-77
2022/04/26 03:50:01;;;;;;;5.45;3.35;;;;;;;7.06;100.00;94680.03;4844160;29;20563;-77
2022/04/26 03:52:28;;;;;;;8.32;4.68;;;;;;;7.19;100.00;94693.88;4841625;29;20156;-76
2022/04/26 03:54:55;;;;;;;7.07;3.33;;;;;;;7.19;100.00;94701.66;4840261;29;20077;-79
2022/04/26 03:57:22;;;;;;;7.28;3.45;;;;;;;7.21;100.00;94700.44;4835114;29;20053;-75
2022/04/26 03:59:49;;;;;;;13.18;3.65;;;;;;;7.22;100.00;94703.78;4839870;29;20042;-70
2022/04/26 04:02:16;;;;;;;6.15;2.97;;;;;;;7.22;100.00;94698.63;4822894;29;20055;-70
2022/04/26 04:04:43;;;;;;;6.75;3.50;;;;;;;7.22;100.00;94699.44;4835292;29;20185;-70
2022/04/26 04:07:10;;;;;;;5.22;4.03;;;;;;;7.27;100.00;94702.19;4850578;29;20120;-70
2022/04/26 04:09:37;;;;;;;8.75;3.10;;;;;;;7.40;100.00;94705.63;4843144;29;20109;-71
2022/04/26 04:12:04;;;;;;;5.85;2.63;;;;;;;7.52;100.00;94713.50;4853904;29;20054;-70
2022/04/26 04:14:31;;;;;;;12.70;5.32;;;;;;;7.65;100.00;94713.38;4853474;29;20156;-70
2022/04/26 04:16:58;;;;;;;10.23;5.15;;;;;;;7.52;100.00;94696.16;4850039;29;20053;-70
2022/04/26 04:19:27;;;;;;;10.50;4.18;;;;;;;7.70;100.00;94705.75;4831421;29;20061;-70
2022/04/26 04:21:53;;;;;;;13.45;6.28;;;;;;;7.83;100.00;94716.00;4831072;29;20054;-70
2022/04/26 04:24:20;;;;;;;12.65;5.68;;;;;;;7.80;100.00;94711.22;4830554;29;20497;-70
2022/04/26 04:26:48;;;;;;;11.50;6.10;;;;;;;7.99;100.00;94729.38;4852212;29;20051;-71
2022/04/26 04:29:15;;;;;;;14.45;8.27;;;;;;;8.13;100.00;94725.63;4839498;29;20049;-71
2022/04/26 04:31:42;;;;;;;16.75;8.82;;;;;;;8.27;100.00;94730.66;4853223;29;20049;-71
2022/04/26 04:34:09;;;;;;;14.98;7.28;;;;;;;8.44;100.00;94736.84;4853572;29;20061;-70
2022/04/26 04:36:36;;;;;;;10.25;5.10;;;;;;;8.56;100.00;94735.09;4838596;29;20493;-71
2022/04/26 04:39:03;;;;;;;17.75;4.88;;;;;;;8.67;99.54;94730.16;4852223;29;20126;-70
2022/04/26 04:41:36;;;;;;;9.98;3.85;;;;;;;8.83;97.68;94739.94;4853370;29;20053;-70
2022/04/26 04:44:07;;;;;;;8.90;3.08;;;;;;;8.94;97.19;94741.75;4842361;29;20060;-71
2022/04/26 04:46:34;;;;;;;13.00;3.33;;;;;;;8.88;96.69;94721.09;4836422;29;20109;-71
2022/04/26 04:49:02;;;;;;;9.25;3.85;;;;;;;9.12;96.34;94745.31;4836654;29;20117;-71
2022/04/26 04:51:28;;;;;;;7.55;3.88;;;;;;;9.24;94.59;94751.31;4853115;29;20054;-71
2022/04/26 04:53:55;;;;;;;9.10;3.88;;;;;;;9.25;93.81;94749.50;4842812;29;20151;-70
2022/04/26 04:56:24;;;;;;;6.60;3.67;;;;;;;9.24;93.25;94748.72;4834270;29;20676;-72
2022/04/26 04:58:52;;;;;;;10.75;4.75;;;;;;;9.34;93.05;94754.13;4833682;29;20049;-70
2022/04/26 05:01:19;;;;;;;8.75;5.80;;;;;;;9.41;92.44;94753.25;4834352;29;20049;-71
2022/04/26 05:03:46;;;;;;;12.27;5.47;;;;;;;9.43;91.60;94761.59;4826468;29;20050;-70
2022/04/26 05:06:14;;;;;;;7.88;5.35;;;;;;;9.47;91.84;94760.13;4851494;29;20045;-71
2022/04/26 05:08:45;;;;;;;15.25;5.18;;;;;;;9.60;91.58;94759.13;4852133;29;20045;-71
2022/04/26 05:11:12;;;;;;;8.05;4.07;;;;;;;9.76;90.86;94763.66;4838276;29;20038;-71
2022/04/26 05:13:39;;;;;;;10.60;4.88;;;;;;;9.87;89.58;94764.69;4853000;29;20051;-71
2022/04/26 05:16:08;;;;;;;10.93;6.40;;;;;;;10.02;88.36;94772.78;4842070;29;20737;-71
2022/04/26 05:18:35;;;;;;;9.88;4.20;;;;;;;10.18;88.13;94770.53;4833920;29;20170;-71
2022/04/26 05:21:05;;;;;;;6.13;3.30;;;;;;;10.29;88.83;94767.09;4832309;29;20458;-71
2022/04/26 05:26:19;;;;;;;2.92;2.30;;;;;;;10.66;86.85;94771.97;4839934;29;20050;-72
2022/04/26 05:28:46;;;;;;;5.03;2.63;;;;;;;10.69;86.14;94761.09;4819616;29;20627;-71
2022/04/26 05:31:14;;;;;;;11.13;3.25;;;;;;;10.86;85.86;94767.16;4852801;29;20124;-72
2022/04/26 05:33:41;;;;;;;9.98;2.97;;;;;;;10.97;84.77;94772.56;4845726;29;20133;-71
2022/04/26 05:36:09;;;;;;;6.82;2.65;;;;;;;10.94;84.28;94775.63;4845134;29;20060;-72
2022/04/26 05:38:36;;;;;;;6.93;3.10;;;;;;;11.02;83.60;94775.22;4853056;29;20524;-72
2022/04/26 05:41:03;;;;;;;6.03;2.72;;;;;;;11.12;83.78;94772.78;4837397;29;20053;-71
2022/04/26 05:43:32;;;;;;;11.57;2.35;;;;;;;11.21;82.23;94774.00;4852979;29;20049;-71
2022/04/26 05:45:59;;;;;;;5.47;2.95;;;;;;;11.00;81.92;94772.88;4843409;29;20118;-72
2022/04/26 05:48:27;;;;;;;7.07;3.08;;;;;;;11.04;82.20;94775.81;4836062;29;20042;-71
2022/04/26 05:50:55;;;;;;;7.38;2.60;;;;;;;11.18;82.53;94774.47;4837125;29;20087;-72
2022/04/26 05:53:22;;;;;;;10.75;2.65;;;;;;;11.23;83.21;94771.94;4852564;29;20057;-72
2022/04/26 05:55:49;;;;;;;9.00;3.00;;;;;;;11.29;82.44;94765.78;4843262;29;20057;-71
2022/04/26 05:58:16;;;;;;;4.60;2.78;;;;;;;11.59;81.28;94780.31;4834198;29;20038;-71
2022/04/26 06:00:43;;;;;;;8.23;2.95;;;;;;;11.71;79.02;94782.84;4848868;29;20053;-71
2022/04/26 06:03:10;;;;;;;9.15;2.45;;;;;;;11.74;78.76;94784.19;4822264;29;20052;-72
2022/04/26 06:05:38;;;;;;;8.07;2.38;;;;;;;11.70;79.12;94770.03;4844472;29;20126;-71
2022/04/26 06:08:07;;;;;;;7.00;2.88;;;;;;;11.78;79.45;94782.69;4844298;29;20045;-71
2022/04/26 06:10:36;;;;;;;9.05;3.67;;;;;;;11.85;80.41;94767.66;4834703;29;20845;-72
2022/04/26 06:13:03;;;;;;;10.00;3.63;;;;;;;12.07;79.42;94780.00;4851332;29;20512;-71
2022/04/26 06:15:30;;;;;;;10.50;3.75;;;;;;;12.29;78.65;94775.56;4846344;29;20045;-72
2022/04/26 06:17:57;;;;;;;6.57;2.00;;;;;;;12.30;77.85;94761.47;4833406;29;20572;-71
2022/04/26 06:20:25;;;;;;;7.88;2.67;;;;;;;12.57;77.49;94773.81;4832633;29;20065;-71
2022/04/26 06:22:53;;;;;;;10.35;3.65;;;;;;;12.64;76.87;94769.19;4838102;29;20057;-71
2022/04/26 06:25:20;;;;;;;14.73;2.88;;;;;;;12.81;76.54;94759.41;4818279;29;20077;-71
2022/04/26 06:27:49;;;;;;;5.53;2.22;;;;;;;13.13;76.34;94770.97;4831330;29;20095;-70
2022/04/26 06:30:22;;;;;;;5.75;2.53;;;;;;;13.27;75.02;94763.50;4816452;29;20060;-70
2022/04/26 06:32:49;;;;;;;6.00;2.67;;;;;;;13.41;74.32;94766.53;4833431;29;20046;-70
2022/04/26 06:35:16;;;;;;;6.40;2.88;;;;;;;13.56;74.95;94756.97;4833358;29;20046;-70
2022/04/26 06:37:43;;;;;;;5.95;2.47;;;;;;;13.77;72.97;94754.47;4835441;29;20049;-69
2022/04/26 06:40:10;;;;;;;11.88;2.03;;;;;;;13.91;70.39;94760.84;4836174;29;20133;-69
2022/04/26 06:42:37;;;;;;;2.92;1.40;;;;;;;14.06;68.80;94754.13;4836724;29;20060;-69
2022/04/26 06:45:04;;;;;;;9.15;1.92;;;;;;;14.29;67.58;94761.56;4835721;29;20049;-69
2022/04/26 06:47:30;;;;;;;4.10;1.50;;;;;;;14.46;66.01;94760.59;4820297;29;20062;-70
2022/04/26 06:49:57;;;;;;;3.20;1.85;;;;;;;14.57;65.43;94756.97;4846181;29;20046;-71
2022/04/26 06:52:24;;;;;;;4.72;1.77;;;;;;;14.63;66.09;94750.72;4852378;29;20179;-68
2022/04/26 06:54:52;;;;;;;3.63;1.50;;;;;;;14.78;65.07;94743.94;4856328;29;20164;-79
2022/04/26 06:57:18;;;;;;;2.22;1.17;;;;;;;14.84;63.39;94745.53;4842314;29;20046;-80
2022/04/26 06:59:46;;;;;;;2.55;1.35;;;;;;;14.94;62.29;94740.28;4856656;29;20045;-70
2022/04/26 07:02:12;;;;;;;4.43;1.65;;;;;;;14.84;63.32;94756.03;4834708;29;20058;-70
2022/04/26 07:04:40;;;;;;;3.45;1.50;;;;;;;15.08;61.79;94751.84;4819193;29;20512;-71
2022/04/26 07:07:07;;;;;;;4.22;1.88;;;;;;;15.36;61.22;94747.16;4845411;29;20049;-70
2022/04/26 07:09:36;;;;;;;5.82;1.50;;;;;;;15.51;58.10;94756.09;4841636;29;20127;-71
2022/04/26 07:12:04;;;;;;;5.75;1.05;;;;;;;15.76;58.12;94750.06;4847124;29;20232;-71
2022/04/26 07:14:31;;;;;;;2.38;1.10;;;;;;;15.82;58.12;94749.75;4839333;29;20049;-77
2022/04/26 07:17:00;;;;;;;2.85;1.13;;;;;;;15.86;57.81;94745.56;4825410;29;20053;-75
2022/04/26 07:19:27;;;;;;;7.93;1.75;;;;;;;15.84;58.47;94742.41;4836763;29;20451;-75
2022/04/26 07:21:54;;;;;;;3.67;1.55;;;;;;;16.13;57.15;94744.44;4815143;29;20042;-76
2022/04/26 07:24:31;;;;;;;3.45;1.73;;;;;;;16.40;57.69;94744.09;4840947;29;20884;-77
2022/04/26 07:26:58;;;;;;;4.32;1.25;;;;;;;16.66;57.78;94745.81;4821155;29;20790;-75
2022/04/26 07:29:26;;;;;;;7.25;1.15;;;;;;;17.06;58.72;94746.66;4836274;29;20061;-83
2022/04/26 07:31:53;;;;;;;7.70;1.80;;;;;;;17.22;57.68;94721.81;4838498;29;20053;-82
2022/04/26 07:34:23;;;;;;;8.10;1.63;;;;;;;17.33;56.25;94712.78;4845725;29;20057;-84
2022/04/26 07:36:59;;;;;;;4.70;1.85;;;;;;;17.83;56.33;94748.69;4837047;29;20054;-81
2022/04/26 07:39:27;;;;;;;6.07;1.80;;;;;;;18.04;55.20;94747.47;4832332;29;20062;-81
2022/04/26 07:41:56;;;;;;;4.65;1.40;;;;;;;18.29;54.50;94745.59;4819784;29;20066;-79
2022/04/26 07:44:23;;;;;;;8.20;1.65;;;;;;;18.47;54.39;94744.84;4825658;29;20050;-78
2022/04/26 07:46:52;;;;;;;3.33;1.85;;;;;;;18.75;53.93;94745.03;4815441;29;20701;-79
2022/04/26 07:49:20;;;;;;;3.70;1.30;;;;;;;18.83;51.51;94743.63;4836898;29;20811;-79
2022/04/26 07:51:48;;;;;;;7.22;2.55;;;;;;;18.97;52.17;94735.81;4838322;29;20056;-78
2022/04/26 07:54:16;;;;;;;6.90;2.50;;;;;;;19.27;52.71;94750.41;4809511;29;20065;-77
2022/04/26 07:56:44;;;;;;;6.13;1.20;;;;;;;19.55;50.07;94751.28;4814788;29;20049;-77
2022/04/26 07:59:14;;;;;;;7.65;1.70;;;;;;;19.71;49.12;94748.38;4839347;29;20069;-77
2022/04/26 08:01:41;;;;;;;4.47;1.52;;;;;;;19.82;49.56;94739.22;4816594;29;20054;-78
2022/04/26 08:04:09;;;;;;;8.32;1.55;;;;;;;19.76;47.53;94740.41;4846570;29;20061;-78
2022/04/26 08:06:36;;;;;;;4.55;0.90;;;;;;;19.95;46.10;94741.13;4840849;29;20049;-78
2022/04/26 08:09:03;;;;;;;3.13;1.70;;;;;;;19.67;46.56;94738.41;4851055;29;20049;-77
2022/04/26 08:11:30;;;;;;;6.93;2.17;;;;;;;19.76;46.16;94729.84;4836801;29;20434;-76
2022/04/26 08:13:58;;;;;;;3.25;1.20;;;;;;;20.00;45.00;94729.66;4828294;29;20459;-76
2022/04/26 08:16:24;;;;;;;2.25;1.17;;;;;;;20.26;43.57;94737.91;4853875;29;20050;-78
2022/04/26 08:18:51;;;;;;;2.75;1.00;;;;;;;20.35;43.32;94735.38;4838432;29;20508;-76
2022/04/26 08:21:19;;;;;;;1.95;1.20;;;;;;;20.47;42.68;94726.91;4840075;29;20046;-76
2022/04/26 08:29:19;;;;;;;2.35;0.82;;;;;;;20.66;41.66;94730.25;4824786;29;20045;-76
2022/04/26 08:31:46;;;;;;;3.38;1.05;;;;;;;20.85;43.10;94726.69;4851844;29;20050;-76
2022/04/26 08:34:13;;;;;;;9.05;1.42;;;;;;;21.24;40.94;94734.00;4853754;29;20515;-76
2022/04/26 08:36:40;;;;;;;4.78;1.42;;;;;;;21.26;40.73;94736.38;4853433;29;20060;-76
2022/04/26 08:39:07;;;;;;;2.20;0.90;;;;;;;21.17;40.58;94733.66;4838331;29;20041;-76
2022/04/26 08:41:35;;;;;;;3.10;0.93;;;;;;;20.89;40.46;94732.97;4830336;29;20539;-76
2022/04/26 08:44:10;;;;;;;7.32;4.70;;;;;;;21.00;41.60;94718.41;4827584;29;20484;-77
2022/04/26 08:52:10;;;;;;;5.65;1.70;;;;;;;21.55;39.52;94734.13;4836408;29;20053;-75
2022/04/26 08:54:37;;;;;;;2.63;1.27;;;;;;;21.63;39.55;94729.94;4836363;29;20068;-77
2022/04/26 08:57:09;;;;;;;4.90;1.45;;;;;;;21.68;39.65;94710.47;4849099;29;20145;-75
2022/04/26 08:59:51;;;;;;;8.15;1.23;;;;;;;21.90;40.56;94718.38;4817617;29;20042;-76
2022/04/26 09:02:22;;;;;;;4.95;1.40;;;;;;;22.09;38.89;94714.72;4833766;29;20555;-76
2022/04/26 09:04:52;;;;;;;4.95;2.13;;;;;;;22.44;39.22;94714.88;4833662;29;20056;-76
2022/04/26 09:07:32;;;;;;;9.25;1.45;;;;;;;22.47;39.40;94724.84;4849821;29;20075;-77
2022/04/26 09:10:11;;;;;;;5.63;1.85;;;;;;;22.20;39.25;94717.88;4837402;29;20052;-74
2022/04/26 09:13:01;;;;;;;5.35;2.08;;;;;;;21.99;40.77;94720.31;4848431;29;20128;-76
2022/04/26 09:15:47;;;;;;;9.10;1.70;;;;;;;22.50;39.73;94719.69;4851588;29;20053;-76
2022/04/26 09:18:27;;;;;;;7.10;2.00;;;;;;;22.89;38.19;94727.91;4842306;29;20050;-75
2022/04/26 09:20:58;;;;;;;10.68;2.22;;;;;;;23.22;37.88;94716.84;4817228;29;20061;-75
2022/04/26 09:23:28;;;;;;;10.23;2.08;;;;;;;23.02;36.65;94721.66;4831645;29;20633;-74
2022/04/26 09:26:08;;;;;;;8.38;1.30;;;;;;;23.31;37.90;94720.25;4845302;29;20054;-76
2022/04/26 09:28:39;;;;;;;4.38;1.10;;;;;;;23.45;36.55;94715.56;4851669;29;20080;-75
2022/04/26 09:31:22;;;;;;;8.90;1.48;;;;;;;22.91;37.26;94712.44;4837671;29;20142;-77
2022/04/26 09:33:57;;;;;;;7.55;1.90;;;;;;;23.37;36.98;94707.59;4820001;29;20058;-75
2022/04/26 09:36:35;;;;;;;5.63;1.55;;;;;;;23.56;36.63;94707.25;4817974;29;20081;-75
2022/04/26 09:39:04;;;;;;;8.10;1.60;;;;;;;23.26;36.89;94707.94;4848934;29;20041;-78
2022/04/26 09:41:34;;;;;;;4.28;1.38;;;;;;;23.25;36.96;94709.00;4818633;29;20050;-77
2022/04/26 09:44:07;;;;;;;22.92;1.30;;;;;;;23.43;36.60;94704.47;4833590;29;20057;-77
2022/04/26 09:46:42;;;;;;;6.93;1.90;;;;;;;23.73;38.28;94688.59;4832585;29;20053;-74
2022/04/26 09:49:11;;;;;;;7.45;1.58;;;;;;;24.10;37.04;94680.19;4835394;29;20084;-74
2022/04/26 09:51:38;;;;;;;18.65;1.45;;;;;;;24.51;35.49;94698.13;4842833;29;20072;-76
2022/04/26 09:54:06;;;;;;;7.95;1.95;;;;;;;24.86;34.61;94689.16;4839682;29;20057;-76
2022/04/26 09:56:34;;;;;;;6.70;1.38;;;;;;;25.17;34.44;94688.75;4851934;29;20080;-78
2022/04/26 09:59:03;;;;;;;6.63;1.85;;;;;;;25.43;34.08;94690.44;4842177;29;20066;-79
2022/04/26 10:01:35;;;;;;;2.53;1.00;;;;;;;24.19;34.84;94684.38;4840307;29;20581;-79
2022/04/26 10:04:04;;;;;;;6.05;2.05;;;;;;;23.47;35.75;94681.47;4824541;29;20078;-79
2022/04/26 10:06:40;;;;;;;6.53;1.83;;;;;;;23.39;36.34;94671.66;4848564;29;20049;-78
2022/04/26 10:09:08;;;;;;;4.13;1.73;;;;;;;23.87;35.80;94667.16;4837096;29;20049;-79
2022/04/26 10:11:36;;;;;;;4.85;0.98;;;;;;;23.71;35.92;94653.56;4836976;29;20057;-78
2022/04/26 10:14:06;;;;;;;3.75;1.52;;;;;;;23.63;36.83;94667.69;4844804;29;20128;-78
2022/04/26 10:16:34;;;;;;;7.43;1.50;;;;;;;24.27;35.73;94660.69;4834513;29;20114;-78
2022/04/26 10:19:09;;;;;;;5.85;1.13;;;;;;;25.15;32.79;94669.63;4849507;29;20049;-79
2022/04/26 10:21:38;;;;;;;14.90;1.48;;;;;;;25.89;32.19;94680.53;4840394;29;20061;-77
2022/04/26 10:24:18;;;;;;;4.22;1.02;;;;;;;26.39;31.61;94663.44;4833997;29;20072;-76
2022/04/26 10:26:46;;;;;;;5.10;2.13;;;;;;;26.91;30.73;94669.16;4831036;29;20049;-78
2022/04/26 10:29:21;;;;;;;8.90;1.52;;;;;;;27.25;27.92;94665.88;4833596;29;20067;-77
2022/04/26 10:31:55;;;;;;;10.70;1.00;;;;;;;27.04;27.57;94670.66;4813032;29;20046;-78
2022/04/26 10:34:31;;;;;;;7.05;0.80;;;;;;;26.64;29.00;94666.09;4817810;29;20129;-77
2022/04/26 10:37:08;;;;;;;3.67;1.02;;;;;;;27.00;28.03;94664.44;4818154;29;20050;-77
2022/04/26 10:39:35;;;;;;;6.85;1.25;;;;;;;27.45;27.71;94663.38;4833472;29;20054;-77
2022/04/26 10:42:07;;;;;;;8.80;7.32;;;;;;;27.79;28.02;94664.63;4818466;29;20049;-76
2022/04/26 10:44:41;;;;;;;6.88;1.33;;;;;;;27.59;28.77;94666.41;4816036;29;20314;-77
2022/04/26 10:47:09;;;;;;;4.45;0.60;;;;;;;27.64;26.83;94663.50;4818310;29;20876;-77
2022/04/26 10:49:35;;;;;;;5.57;1.17;;;;;;;27.46;27.48;94659.59;4833705;29;20584;-77
2022/04/26 10:52:19;;;;;;;14.63;6.93;;;;;;;27.21;27.64;94645.53;4850275;29;20065;-77
2022/04/26 10:54:58;;;;;;;13.82;2.47;;;;;;;26.80;29.01;94650.91;4850727;29;20049;-77
2022/04/26 10:57:27;;;;;;;2.00;0.85;;;;;;;27.07;28.09;94645.94;4820180;29;20046;-77
2022/04/26 10:59:59;;;;;;;11.27;3.67;;;;;;;27.31;29.23;94628.25;4841699;29;20045;-76
2022/04/26 11:02:29;;;;;;;10.93;8.48;;;;;;;27.31;27.89;94638.94;4840428;29;20058;-79
2022/04/26 11:05:01;;;;;;;7.97;2.28;;;;;;;27.48;29.21;94641.31;4849549;29;20597;-77
2022/04/26 11:07:29;;;;;;;8.23;1.10;;;;;;;28.20;26.74;94640.38;4833424;29;20053;-79
2022/04/26 11:09:58;;;;;;;4.47;1.27;;;;;;;28.69;25.61;94639.94;4833156;29;20619;-78
2022/04/26 11:12:29;;;;;;;6.80;0.80;;;;;;;28.16;25.17;94634.94;4831978;29;20162;-78
2022/04/26 11:15:03;;;;;;;5.25;0.95;;;;;;;27.64;26.23;94635.94;4817493;29;20041;-78
2022/04/26 11:17:30;;;;;;;7.45;4.78;;;;;;;27.95;25.76;94619.16;4828163;29;20070;-79
2022/04/26 11:20:08;;;;;;;13.93;9.60;;;;;;;28.27;25.38;94635.19;4832765;29;20049;-79
2022/04/26 11:22:43;;;;;;;17.45;9.32;;;;;;;27.76;24.55;94632.44;4833341;29;20054;-79
2022/04/26 11:28:10;;;;;;;3.00;0.80;;;;;;;26.76;26.25;94636.69;4836492;29;20138;-79
2022/04/26 11:30:38;;;;;;;5.22;0.93;;;;;;;26.03;28.63;94621.53;4837564;29;20054;-79
2022/04/26 11:33:18;;;;;;;4.80;1.08;;;;;;;26.10;28.02;94622.53;4835809;29;20510;-79
2022/04/26 11:35:55;;;;;;;7.47;1.42;;;;;;;26.00;28.02;94622.19;4834960;29;20691;-79
2022/04/26 11:38:24;;;;;;;3.22;1.20;;;;;;;26.59;26.78;94628.91;4817281;29;20058;-80
2022/04/26 11:41:00;;;;;;;9.98;1.70;;;;;;;27.01;27.75;94616.00;4822315;29;20064;-80
2022/04/26 11:43:33;;;;;;;4.80;1.38;;;;;;;27.58;25.56;94624.72;4818202;29;20042;-80
2022/04/26 11:46:02;;;;;;;3.38;1.13;;;;;;;27.15;25.39;94620.16;4834786;29;20050;-79
2022/04/26 11:48:32;;;;;;;5.95;1.35;;;;;;;26.54;27.15;94623.78;4816310;29;20050;-79
2022/04/26 11:51:01;;;;;;;4.82;1.60;;;;;;;26.33;27.00;94624.72;4821256;29;20469;-79
2022/04/26 11:53:32;;;;;;;5.10;1.40;;;;;;;25.99;27.24;94626.75;4835107;29;20089;-81
2022/04/26 11:56:04;;;;;;;2.30;1.38;;;;;;;25.19;28.36;94625.22;4813716;29;20050;-79
2022/04/26 11:58:32;;;;;;;2.83;1.10;;;;;;;25.26;28.00;94638.84;4818825;29;20041;-80
2022/04/26 12:01:10;;;;;;;4.28;1.25;;;;;;;24.96;30.18;94630.19;4820503;29;20054;-79
2022/04/26 12:03:55;;;;;;;3.95;0.55;;;;;;;24.78;30.84;94603.69;4829772;29;20064;-79
2022/04/26 12:06:32;;;;;;;1.77;1.33;;;;;;;25.10;29.78;94627.22;4820020;29;20088;-78
2022/04/26 12:09:04;;;;;;;2.50;0.70;;;;;;;25.14;29.69;94630.78;4832564;29;20054;-78
2022/04/26 12:11:38;;;;;;;1.67;0.93;;;;;;;25.41;30.90;94671.31;4816429;29;20105;-78
2022/04/26 12:14:07;;;;;;;6.80;1.60;;;;;;;24.74;34.77;94673.88;4817592;29;20516;-79
2022/04/26 12:16:47;;;;;;;7.50;1.25;;;;;;;24.39;35.75;94658.13;4834265;29;20046;-79
2022/04/26 12:19:16;;;;;;;8.70;1.25;;;;;;;23.58;37.53;94670.50;4834041;29;20103;-78
2022/04/26 12:21:48;;;;;;;8.55;1.27;;;;;;;23.03;38.06;94667.44;4816803;29;20679;-78
2022/04/26 12:24:17;;;;;;;11.85;2.00;;;;;;;22.73;39.73;94652.47;4817553;29;20062;-78
2022/04/26 12:26:56;;;;;;;6.57;1.23;;;;;;;22.75;38.78;94645.72;4832655;29;20767;-78
2022/04/26 12:29:28;;;;;;;3.42;1.33;;;;;;;22.85;39.11;94657.91;4833452;29;20050;-78
2022/04/26 12:31:57;;;;;;;8.63;1.55;;;;;;;23.01;38.76;94648.41;4842498;29;20169;-78
2022/04/26 12:34:29;;;;;;;4.95;1.58;;;;;;;23.25;39.42;94636.50;4834967;29;20050;-78
2022/04/26 12:37:15;;;;;;;7.78;1.48;;;;;;;23.80;39.01;94635.72;4818882;29;20507;-78
2022/04/26 12:39:44;;;;;;;3.17;0.90;;;;;;;24.17;38.16;94664.53;4836587;29;20061;-79
2022/04/26 12:42:14;;;;;;;7.43;2.58;;;;;;;24.64;37.99;94663.63;4833992;29;20103;-78
2022/04/26 12:44:50;;;;;;;7.07;1.20;;;;;;;24.55;36.66;94701.75;4835910;29;20472;-78
2022/04/26 12:52:58;;;;;;;8.70;1.05;;;;;;;23.50;38.49;94689.91;4858625;29;20064;-78
2022/04/26 12:55:32;;;;;;;4.15;1.02;;;;;;;23.69;38.07;94724.88;4832257;29;20091;-78
2022/04/26 12:58:04;;;;;;;1.52;0.85;;;;;;;24.16;37.90;94700.97;4847222;29;20054;-78
2022/04/26 13:00:33;;;;;;;2.35;0.88;;;;;;;24.92;35.74;94715.28;4839590;29;20049;-80
2022/04/26 13:03:03;;;;;;;3.78;0.80;;;;;;;25.23;36.72;94690.13;4821958;29;20732;-79
2022/04/26 13:05:44;;;;;;;4.97;1.10;;;;;;;25.90;35.09;94696.19;4823210;29;20068;-80
2022/04/26 13:08:14;;;;;;;2.95;0.70;;;;;;;26.40;34.92;94693.56;4840950;29;20085;-81
2022/04/26 13:10:42;;;;;;;3.70;0.75;;;;;;;26.63;32.36;94688.56;4813166;29;20591;-80
2022/04/26 13:13:10;;;;;;;4.32;1.10;;;;;;;26.61;32.35;94677.44;4827387;29;20049;-78
2022/04/26 13:15:38;;;;;;;3.15;1.10;;;;;;;26.36;33.17;94661.41;4807190;29;20070;-78
2022/04/26 13:18:05;;;;;;;6.05;0.77;;;;;;;26.35;32.69;94643.84;4834431;29;20061;-78
2022/04/26 13:20:33;;;;;;;9.90;0.77;;;;;;;25.79;32.64;94643.63;4821185;29;20038;-77
2022/04/26 13:23:01;;;;;;;8.68;0.65;;;;;;;25.85;33.48;94637.72;4832691;29;20045;-77
2022/04/26 13:25:28;;;;;;;5.82;1.02;;;;;;;26.04;33.87;94649.78;4836797;29;20065;-77
2022/04/26 13:27:55;;;;;;;2.45;0.60;;;;;;;26.40;32.30;94650.84;4837014;29;20057;-79
2022/04/26 13:30:24;;;;;;;3.95;0.80;;;;;;;26.87;31.64;94663.72;4839797;29;20149;-78
2022/04/26 13:32:53;;;;;;;4.97;0.50;;;;;;;27.05;31.44;94645.50;4842542;29;20102;-78
2022/04/26 13:35:21;;;;;;;4.60;0.45;;;;;;;27.46;31.05;94659.59;4806690;29;20057;-79
2022/04/26 13:37:50;;;;;;;3.65;0.40;;;;;;;27.25;30.40;94641.81;4829668;29;20065;-78
2022/04/26 13:40:17;;;;;;;6.22;0.95;;;;;;;26.75;32.38;94642.38;4812518;29;20045;-77
2022/04/26 13:42:45;;;;;;;1.27;0.55;;;;;;;27.06;32.22;94639.00;4838125;29;20078;-79
2022/04/26 13:45:12;;;;;;;3.90;1.00;;;;;;;27.78;31.01;94635.53;4818753;29;20056;-79
2022/04/26 13:47:39;;;;;;;7.82;0.80;;;;;;;28.32;29.76;94626.84;4818085;29;20563;-79
2022/04/26 13:50:08;;;;;;;5.13;0.65;;;;;;;28.09;30.10;94617.91;4834265;29;20061;-79
2022/04/26 13:52:35;;;;;;;2.65;0.40;;;;;;;28.23;29.72;94612.88;4835071;29;20072;-80
2022/04/26 13:55:03;;;;;;;1.60;0.50;;;;;;;28.20;30.00;94608.25;4849474;29;20526;-81
2022/04/26 13:57:30;;;;;;;3.08;1.13;;;;;;;28.13;29.12;94589.34;4837395;29;20052;-79
2022/04/26 13:59:57;;;;;;;2.97;0.70;;;;;;;28.35;29.06;94604.75;4842982;29;20084;-79
2022/04/26 14:02:24;;;;;;;3.08;0.40;;;;;;;28.90;28.07;94614.69;4819129;29;20049;-78
2022/04/26 14:04:51;;;;;;;5.95;0.60;;;;;;;29.44;27.60;94619.16;4817110;29;20076;-78
2022/04/26 14:07:19;;;;;;;7.57;3.17;;;;;;;29.98;26.54;94638.06;4833409;29;20061;-80
2022/04/26 14:09:46;;;;;;;44.10;15.30;;;;;;;29.71;26.14;94616.53;4844230;29;20049;-80
2022/04/26 14:12:14;;;;;;;629.22;265.83;;;;;;;28.85;27.31;94652.50;4846596;29;20041;-80
2022/04/26 14:22:59;;;;;;;1535.63;412.17;;;;;;;25.35;32.67;94668.06;4835448;29;20049;-80
2022/04/26 14:25:26;;;;;;;1653.07;608.42;;;;;;;24.79;32.84;94679.03;4844046;29;20141;-79
2022/04/26 14:27:53;;;;;;;1251.15;478.98;;;;;;;24.50;33.45;94667.28;4827830;29;20052;-78
2022/04/26 14:30:20;;;;;;;93.32;52.50;;;;;;;24.39;33.30;94676.75;4833589;29;20444;-77
2022/04/26 14:33:06;;;;;;;5.22;2.22;;;;;;;24.05;33.29;94683.81;4840151;29;20050;-76
2022/04/26 14:35:33;;;;;;;2.00;0.32;;;;;;;23.62;34.40;94682.06;4834038;29;20050;-79
2022/04/26 14:38:00;;;;;;;2.53;0.60;;;;;;;23.07;37.17;94668.41;4816173;29;20045;-78
2022/04/26 14:40:28;;;;;;;1.13;0.40;;;;;;;22.87;38.88;94684.94;4818041;29;20042;-76
2022/04/26 14:42:59;;;;;;;0.77;0.60;;;;;;;21.98;39.93;94671.78;4833793;29;20065;-77
2022/04/26 14:45:32;;;;;;;0.70;0.30;;;;;;;21.76;40.11;94685.88;4835971;29;20081;-77
2022/04/26 14:48:00;;;;;;;1.60;0.40;;;;;;;21.41;40.69;94688.34;4835622;29;20056;-75
2022/04/26 14:50:30;;;;;;;0.60;0.47;;;;;;;21.00;40.55;94691.94;4835839;29;20076;-78
2022/04/26 14:52:57;;;;;;;2.60;0.50;;;;;;;20.48;42.09;94692.25;4823588;29;20057;-80
2022/04/26 14:55:24;;;;;;;0.95;0.30;;;;;;;20.42;42.80;94710.09;4845339;29;20053;-80
2022/04/26 14:57:53;;;;;;;1.58;0.30;;;;;;;20.11;43.10;94719.69;4824681;29;20114;-82
2022/04/26 15:00:19;;;;;;;1.13;0.55;;;;;;;19.42;45.11;94715.06;4841485;29;20052;-80
2022/04/26 15:02:46;;;;;;;3.30;0.43;;;;;;;18.60;47.76;94747.84;4815629;29;20038;-76
2022/04/26 15:05:13;;;;;;;12.90;9.25;;;;;;;18.22;50.68;94726.69;4834935;29;20054;-76
2022/04/26 15:10:27;;;;;;;2.75;0.95;;;;;;;16.95;59.86;94738.84;4826912;29;20423;-74
2022/04/26 15:18:25;;;;;;;4.75;1.17;;;;;;;15.45;79.12;94737.72;4837028;29;20061;-75
2022/04/26 15:20:52;;;;;;;13.77;2.33;;;;;;;14.97;80.63;94731.91;4820367;29;20526;-73
2022/04/26 15:23:20;;;;;;;11.38;1.02;;;;;;;14.69;80.70;94718.25;4832986;29;20156;-74
2022/04/26 15:25:50;;;;;;;5.68;1.10;;;;;;;14.58;85.87;94713.22;4829302;29;20054;-75
2022/04/26 15:28:22;;;;;;;2.13;0.98;;;;;;;14.71;82.90;94731.88;4833230;29;20057;-76
2022/04/26 15:30:50;;;;;;;2.05;0.77;;;;;;;14.84;83.70;94745.53;4824697;29;20054;-74
2022/04/26 15:33:19;;;;;;;5.50;1.20;;;;;;;14.83;82.88;94746.56;4839885;29;20038;-76
2022/04/26 15:35:46;;;;;;;7.15;1.45;;;;;;;14.79;86.48;94761.25;4825312;29;20110;-75
2022/04/26 15:38:14;;;;;;;0.85;0.50;;;;;;;14.89;85.70;94759.44;4852067;29;20046;-73
2022/04/26 15:40:43;;;;;;;1.27;0.75;;;;;;;15.54;88.60;94761.59;4833215;29;20050;-75
2022/04/26 15:43:10;;;;;;;2.95;0.82;;;;;;;16.18;86.06;94747.03;4821607;29;20140;-74
2022/04/26 15:45:37;;;;;;;1.10;0.80;;;;;;;16.95;82.17;94741.47;4850390;29;20054;-73
2022/04/26 15:48:05;;;;;;;5.03;0.90;;;;;;;17.81;79.98;94742.91;4836871;29;20049;-73
2022/04/26 15:50:32;;;;;;;1.80;0.73;;;;;;;18.14;73.88;94728.88;4838407;29;20054;-75
2022/04/26 15:52:59;;;;;;;2.75;0.80;;;;;;;17.67;72.71;94742.78;4854506;29;20169;-76
2022/04/26 15:55:33;;;;;;;1.58;0.55;;;;;;;17.84;73.33;94731.81;4831583;29;20046;-75
2022/04/26 15:58:01;;;;;;;4.05;0.45;;;;;;;18.27;70.97;94729.28;4836424;29;20067;-74